Time;durP1;ratioP1;P1;durP2;ratioP2;P2;SDS_P1;SDS_P2;PMS_P1;PMS_P2;Temp;Humidity;BMP_temperature;BMP_pressure;BME280_temperature;BME280_humidity;BME280_pressure;Samples;Min_cycle;Max_cycle;Signal;HPM_P1;HPM_P2
2022/07/18 00:00:26;;;;;;;5.00;3.43;;;16.40;78.30;;;;;;5009406;28;20470;-60
2022/07/18 00:02:53;;;;;;;7.70;3.60;;;16.30;78.80;;;;;;5007793;28;20499;-58
2022/07/18 00:05:20;;;;;;;4.47;3.43;;;16.30;79.30;;;;;;5003038;28;20443;-59
2022/07/18 00:07:47;;;;;;;5.03;2.87;;;16.30;79.80;;;;;;4993623;28;20807;-58
2022/07/18 00:10:15;;;;;;;4.27;3.30;;;16.30;80.40;;;;;;5005470;28;20478;-57
2022/07/18 00:12:42;;;;;;;5.07;3.13;;;16.30;80.70;;;;;;4999070;28;20447;-59
2022/07/18 00:15:12;;;;;;;7.57;4.00;;;16.30;81.00;;;;;;5003372;28;20961;-58
2022/07/18 00:17:39;;;;;;;5.07;3.57;;;16.30;81.20;;;;;;5012427;28;20489;-58
2022/07/18 00:20:08;;;;;;;4.10;2.90;;;16.30;81.50;;;;;;5002983;28;20998;-58
2022/07/18 00:22:36;;;;;;;3.40;2.63;;;16.20;81.80;;;;;;4993509;28;20482;-58
2022/07/18 00:25:04;;;;;;;6.10;3.33;;;16.20;82.20;;;;;;4998345;28;21033;-59
2022/07/18 00:27:31;;;;;;;7.70;3.70;;;16.10;82.70;;;;;;4977939;28;20459;-58
2022/07/18 00:29:58;;;;;;;3.73;2.70;;;16.10;83.20;;;;;;4988323;28;20501;-58
2022/07/18 00:32:27;;;;;;;7.00;2.90;;;16.10;83.60;;;;;;5009916;28;20482;-57
2022/07/18 00:34:54;;;;;;;5.47;3.00;;;16.10;83.90;;;;;;5012167;28;20532;-58
2022/07/18 00:37:22;;;;;;;4.07;2.67;;;16.00;84.30;;;;;;5000512;28;20510;-58
2022/07/18 00:39:49;;;;;;;5.50;2.73;;;16.00;84.70;;;;;;5002053;28;20945;-58
2022/07/18 00:42:16;;;;;;;4.93;3.13;;;16.00;85.00;;;;;;4997525;28;20521;-58
2022/07/18 00:44:44;;;;;;;8.50;2.67;;;15.90;85.30;;;;;;5004055;28;20472;-58
2022/07/18 00:47:11;;;;;;;4.50;3.23;;;15.90;85.70;;;;;;5010380;28;20536;-57
2022/07/18 00:49:40;;;;;;;5.03;2.83;;;15.90;86.20;;;;;;5005478;28;20488;-58
2022/07/18 00:52:07;;;;;;;5.00;3.30;;;15.80;86.50;;;;;;4997276;28;20478;-58
2022/07/18 00:54:34;;;;;;;5.47;3.03;;;15.80;87.00;;;;;;4999216;28;20536;-58
2022/07/18 00:57:02;;;;;;;4.00;2.93;;;15.80;87.60;;;;;;5012475;28;20553;-58
2022/07/18 01:02:10;;;;;;;3.30;2.97;;;15.70;88.10;;;;;;5004489;28;20439;-57
2022/07/18 01:04:40;;;;;;;4.17;3.03;;;15.70;88.30;;;;;;5009492;28;20954;-58
2022/07/18 01:07:07;;;;;;;3.20;2.90;;;15.70;88.40;;;;;;5016635;28;20462;-58
2022/07/18 01:09:35;;;;;;;4.90;2.73;;;15.70;88.60;;;;;;5010338;28;20849;-58
2022/07/18 01:12:02;;;;;;;3.30;2.43;;;15.70;89.00;;;;;;5002781;28;20507;-58
2022/07/18 01:14:31;;;;;;;3.93;2.97;;;15.70;88.80;;;;;;5006464;28;20901;-57
2022/07/18 01:16:58;;;;;;;4.10;2.40;;;15.60;88.80;;;;;;5012906;28;20926;-58
2022/07/18 01:19:25;;;;;;;4.67;2.73;;;15.60;89.10;;;;;;5014896;28;20446;-59
2022/07/18 01:21:54;;;;;;;3.50;2.30;;;15.60;89.30;;;;;;5016804;28;20528;-57
2022/07/18 01:24:22;;;;;;;5.43;2.50;;;15.60;89.70;;;;;;5014504;28;20496;-58
2022/07/18 01:26:49;;;;;;;5.13;2.73;;;15.60;89.70;;;;;;5005433;28;20533;-58
2022/07/18 01:29:16;;;;;;;4.70;2.70;;;15.50;89.90;;;;;;4999044;28;20909;-57
2022/07/18 01:31:43;;;;;;;3.70;2.50;;;15.50;90.00;;;;;;5000812;28;21007;-57
2022/07/18 01:34:11;;;;;;;4.60;3.30;;;15.50;90.20;;;;;;5008481;28;20451;-58
2022/07/18 01:36:39;;;;;;;4.83;2.27;;;15.40;90.20;;;;;;4999924;28;20513;-57
2022/07/18 01:39:09;;;;;;;3.90;2.60;;;15.40;90.30;;;;;;5012713;28;20489;-59
2022/07/18 01:41:36;;;;;;;4.80;2.77;;;15.40;90.50;;;;;;5011170;28;20822;-58
2022/07/18 01:44:04;;;;;;;2.93;2.53;;;15.40;90.60;;;;;;5014630;28;20529;-58
2022/07/18 01:46:31;;;;;;;4.30;2.53;;;15.30;90.70;;;;;;4997008;28;20529;-59
2022/07/18 01:48:58;;;;;;;4.30;2.80;;;15.30;90.70;;;;;;5004052;28;20486;-58
2022/07/18 01:51:25;;;;;;;6.63;3.20;;;15.30;90.90;;;;;;5003567;28;20479;-58
2022/07/18 01:54:01;;;;;;;4.50;3.37;;;15.20;91.00;;;;;;5007755;28;20482;-58
2022/07/18 01:56:29;;;;;;;5.40;3.27;;;15.20;91.30;;;;;;5004564;28;20480;-57
2022/07/18 01:58:57;;;;;;;5.57;3.40;;;15.20;91.60;;;;;;5002190;28;20557;-59
2022/07/18 02:01:25;;;;;;;4.73;2.50;;;15.20;92.00;;;;;;5011669;28;20454;-58
2022/07/18 02:03:52;;;;;;;5.60;2.80;;;15.10;92.10;;;;;;4998967;28;20878;-58
2022/07/18 02:06:19;;;;;;;3.40;2.20;;;15.10;92.50;;;;;;5004619;28;20564;-59
2022/07/18 02:08:46;;;;;;;5.60;2.83;;;15.00;92.80;;;;;;5011311;28;20446;-57
2022/07/18 02:11:14;;;;;;;5.60;2.70;;;15.00;93.10;;;;;;5014340;28;20859;-57
2022/07/18 02:13:42;;;;;;;3.87;2.70;;;14.90;93.40;;;;;;5004503;28;20498;-58
2022/07/18 02:16:10;;;;;;;4.90;3.10;;;14.90;93.70;;;;;;4984377;28;20580;-59
2022/07/18 02:18:37;;;;;;;7.27;2.77;;;14.90;94.10;;;;;;5014548;28;20450;-58
2022/07/18 02:21:05;;;;;;;4.00;2.57;;;14.90;94.20;;;;;;4995713;28;20489;-59
2022/07/18 02:23:32;;;;;;;3.20;2.23;;;14.90;94.40;;;;;;5012564;28;20464;-58
2022/07/18 02:25:59;;;;;;;3.57;2.80;;;14.80;94.50;;;;;;5023977;22;20479;-59
2022/07/18 02:28:27;;;;;;;3.00;2.70;;;14.80;94.70;;;;;;5015118;28;20426;-61
2022/07/18 02:30:55;;;;;;;3.60;2.67;;;14.80;94.90;;;;;;5014827;28;20474;-61
2022/07/18 02:33:23;;;;;;;3.37;2.40;;;14.70;95.00;;;;;;5014896;28;20505;-60
2022/07/18 02:35:50;;;;;;;4.47;2.50;;;14.70;95.30;;;;;;5013827;28;21020;-60
2022/07/18 02:38:17;;;;;;;3.00;2.47;;;14.70;95.60;;;;;;5014716;28;20485;-60
2022/07/18 02:40:45;;;;;;;4.60;2.73;;;14.60;95.70;;;;;;5014409;28;20482;-61
2022/07/18 02:43:12;;;;;;;6.70;3.40;;;14.60;95.80;;;;;;5015264;28;20535;-60
2022/07/18 02:45:39;;;;;;;5.03;2.70;;;14.60;96.00;;;;;;5015507;28;20474;-60
2022/07/18 02:48:08;;;;;;;3.40;2.30;;;14.60;96.10;;;;;;5014813;28;20485;-60
2022/07/18 02:50:35;;;;;;;4.30;2.43;;;14.60;96.10;;;;;;5014561;28;20485;-60
2022/07/18 02:53:03;;;;;;;6.93;2.90;;;14.60;96.20;;;;;;5015707;28;20476;-60
2022/07/18 02:55:30;;;;;;;4.77;2.50;;;14.60;96.20;;;;;;5014594;28;20517;-58
2022/07/18 02:57:58;;;;;;;3.53;3.03;;;14.50;96.20;;;;;;5013887;28;20595;-60
2022/07/18 03:00:25;;;;;;;4.03;2.47;;;14.60;96.10;;;;;;5014195;28;20946;-60
2022/07/18 03:02:52;;;;;;;2.90;2.10;;;14.60;96.00;;;;;;5014523;28;20553;-60
2022/07/18 03:05:21;;;;;;;4.33;2.40;;;14.50;95.90;;;;;;5014235;28;20481;-60
2022/07/18 03:07:48;;;;;;;4.00;2.90;;;14.50;95.80;;;;;;5014059;28;20474;-60
2022/07/18 03:10:16;;;;;;;7.67;3.37;;;14.50;95.80;;;;;;5013801;28;20946;-60
2022/07/18 03:12:43;;;;;;;3.40;2.77;;;14.50;95.70;;;;;;5013334;28;20450;-61
2022/07/18 03:15:11;;;;;;;2.90;2.37;;;14.50;95.70;;;;;;5013523;28;20826;-60
2022/07/18 03:17:38;;;;;;;5.23;2.83;;;14.40;95.50;;;;;;5013977;28;20565;-60
2022/07/18 03:20:06;;;;;;;3.40;2.30;;;14.40;95.40;;;;;;5013817;28;20533;-61
2022/07/18 03:22:35;;;;;;;3.60;2.07;;;14.40;95.40;;;;;;5013805;28;20492;-60
2022/07/18 03:25:02;;;;;;;4.30;2.70;;;14.40;95.30;;;;;;5012865;28;20446;-60
2022/07/18 03:27:30;;;;;;;3.87;2.70;;;14.40;95.30;;;;;;5013238;28;20569;-60
2022/07/18 03:29:57;;;;;;;4.00;2.60;;;14.40;95.20;;;;;;5012916;28;20541;-60
2022/07/18 03:32:24;;;;;;;4.80;2.00;;;14.30;95.20;;;;;;5013843;28;20855;-60
2022/07/18 03:34:52;;;;;;;4.00;1.87;;;14.30;95.10;;;;;;5013248;28;20454;-60
2022/07/18 03:37:19;;;;;;;4.80;2.17;;;14.30;95.10;;;;;;5012804;28;20569;-60
2022/07/18 03:39:48;;;;;;;3.17;2.50;;;14.30;95.00;;;;;;5013129;28;20446;-60
2022/07/18 03:42:15;;;;;;;4.63;2.37;;;14.30;94.90;;;;;;5013199;28;20488;-60
2022/07/18 03:44:42;;;;;;;5.93;2.33;;;14.40;95.00;;;;;;5013386;28;20478;-60
2022/07/18 03:47:09;;;;;;;4.90;2.63;;;14.40;94.90;;;;;;5013367;28;20890;-60
2022/07/18 03:49:37;;;;;;;3.50;2.20;;;14.40;94.80;;;;;;5013168;28;20442;-60
2022/07/18 03:52:05;;;;;;;3.43;2.00;;;14.40;94.60;;;;;;5012733;28;20449;-60
2022/07/18 03:54:32;;;;;;;3.30;2.30;;;14.50;94.60;;;;;;5012868;28;20961;-61
2022/07/18 03:57:01;;;;;;;4.70;2.50;;;14.60;94.40;;;;;;5012848;28;20513;-60
2022/07/18 03:59:28;;;;;;;3.93;2.50;;;14.60;94.20;;;;;;5012973;28;20450;-60
2022/07/18 04:01:55;;;;;;;5.60;3.10;;;14.70;94.00;;;;;;5012887;28;20537;-60
2022/07/18 04:04:22;;;;;;;4.50;2.60;;;14.80;93.70;;;;;;5012986;28;20504;-60
2022/07/18 04:10:00;;;;;;;5.13;1.80;;;15.20;93.10;;;;;;5123613;27;20964;-60
2022/07/18 04:12:27;;;;;;;3.40;2.17;;;15.60;92.50;;;;;;5131334;27;20444;-61
2022/07/18 04:14:55;;;;;;;3.20;2.30;;;16.10;91.40;;;;;;5128290;27;20529;-60
2022/07/18 04:17:22;;;;;;;4.90;2.47;;;16.50;90.00;;;;;;5115537;27;20461;-60
2022/07/18 04:19:49;;;;;;;6.33;2.80;;;17.00;86.90;;;;;;5098945;28;20471;-60
2022/07/18 04:22:16;;;;;;;3.50;2.10;;;17.40;84.30;;;;;;5090572;28;20469;-61
2022/07/18 04:24:44;;;;;;;4.30;2.00;;;17.60;81.00;;;;;;5101065;28;20446;-60
2022/07/18 04:27:13;;;;;;;2.67;2.03;;;17.60;79.50;;;;;;5096842;28;20563;-60
2022/07/18 04:29:40;;;;;;;5.10;2.60;;;17.80;78.30;;;;;;5099821;28;20477;-60
2022/07/18 04:32:07;;;;;;;3.67;1.90;;;18.20;76.40;;;;;;5107115;28;20503;-60
2022/07/18 04:34:35;;;;;;;3.20;1.93;;;18.50;73.90;;;;;;5099366;28;20485;-60
2022/07/18 04:37:02;;;;;;;4.30;1.73;;;18.90;71.10;;;;;;5107426;28;20521;-60
2022/07/18 04:39:29;;;;;;;2.03;1.83;;;19.00;68.90;;;;;;5109767;28;20507;-59
2022/07/18 04:41:57;;;;;;;3.23;1.93;;;18.80;68.00;;;;;;5097982;28;20528;-61
2022/07/18 04:44:25;;;;;;;7.80;2.60;;;18.60;67.70;;;;;;5110349;28;20499;-60
2022/07/18 04:46:52;;;;;;;5.67;2.23;;;18.30;67.90;;;;;;5099117;28;20828;-59
2022/07/18 04:49:20;;;;;;;6.30;2.70;;;18.30;68.60;;;;;;5089846;28;20474;-60
2022/07/18 04:51:47;;;;;;;5.77;2.33;;;18.60;68.00;;;;;;5090387;28;20533;-60
2022/07/18 04:54:14;;;;;;;3.07;2.03;;;19.10;66.00;;;;;;5090104;28;20776;-60
2022/07/18 04:56:42;;;;;;;3.97;1.90;;;19.60;63.80;;;;;;5090012;28;20468;-60
2022/07/18 04:59:09;;;;;;;2.27;2.07;;;20.10;61.90;;;;;;5090098;28;20445;-61
2022/07/18 05:01:38;;;;;;;3.00;1.53;;;20.60;59.90;;;;;;5095603;28;20887;-60
2022/07/18 05:04:05;;;;;;;3.13;1.80;;;20.70;58.40;;;;;;5104482;28;20450;-61
2022/07/18 05:06:32;;;;;;;3.27;1.90;;;20.80;57.50;;;;;;5108663;28;20557;-60
2022/07/18 05:09:00;;;;;;;3.37;1.93;;;20.80;57.00;;;;;;5089192;28;20518;-60
2022/07/18 05:11:27;;;;;;;5.87;2.13;;;21.00;56.70;;;;;;5089508;28;20554;-61
2022/07/18 05:13:54;;;;;;;2.33;1.67;;;21.10;55.80;;;;;;5093168;28;20477;-61
2022/07/18 05:16:21;;;;;;;3.20;1.50;;;21.20;55.40;;;;;;5109958;28;20552;-61
2022/07/18 05:18:50;;;;;;;2.60;1.97;;;21.30;54.80;;;;;;5110171;28;20491;-61
2022/07/18 05:21:17;;;;;;;5.53;2.40;;;21.50;54.10;;;;;;5096647;28;20495;-61
2022/07/18 05:23:45;;;;;;;3.23;1.80;;;21.50;53.60;;;;;;5096736;28;20757;-61
2022/07/18 05:26:12;;;;;;;3.10;2.20;;;21.40;53.50;;;;;;5084632;28;20506;-61
2022/07/18 05:28:39;;;;;;;2.70;2.03;;;21.50;53.20;;;;;;5074756;28;21105;-60
2022/07/18 05:31:07;;;;;;;5.20;2.10;;;21.70;52.90;;;;;;5076386;28;20481;-60
2022/07/18 05:33:34;;;;;;;5.27;2.10;;;21.90;52.20;;;;;;5076384;28;20498;-61
2022/07/18 05:36:03;;;;;;;7.63;1.60;;;22.20;51.50;;;;;;5075729;28;20462;-60
2022/07/18 05:38:30;;;;;;;6.90;1.80;;;22.40;50.90;;;;;;5095952;28;20487;-61
2022/07/18 05:40:58;;;;;;;4.00;1.90;;;22.50;50.40;;;;;;5095562;28;20443;-62
2022/07/18 05:43:25;;;;;;;4.03;1.90;;;22.60;50.00;;;;;;5095829;28;20448;-61
2022/07/18 05:45:52;;;;;;;2.63;1.70;;;22.70;49.70;;;;;;5095072;28;20482;-61
2022/07/18 05:48:20;;;;;;;7.10;2.17;;;22.70;49.50;;;;;;5091851;28;20446;-62
2022/07/18 05:50:47;;;;;;;3.33;1.40;;;22.50;49.20;;;;;;5091732;28;20449;-60
2022/07/18 05:53:16;;;;;;;4.87;1.80;;;22.40;49.30;;;;;;5095857;28;20475;-59
2022/07/18 05:55:43;;;;;;;6.67;2.10;;;22.30;49.30;;;;;;5094999;28;20448;-60
2022/07/18 05:58:11;;;;;;;3.40;1.80;;;22.20;49.20;;;;;;5095406;28;20443;-59
2022/07/18 06:00:38;;;;;;;4.10;2.00;;;22.10;49.40;;;;;;5095817;28;20818;-59
2022/07/18 06:03:06;;;;;;;2.33;1.50;;;22.10;49.50;;;;;;5095186;28;20440;-60
2022/07/18 06:05:33;;;;;;;4.37;1.80;;;22.20;49.40;;;;;;5095218;28;20464;-60
2022/07/18 06:08:01;;;;;;;2.77;1.77;;;22.40;49.40;;;;;;5096658;28;20461;-60
2022/07/18 06:10:29;;;;;;;4.53;1.63;;;22.60;48.90;;;;;;5095986;28;20461;-62
2022/07/18 06:12:57;;;;;;;3.93;1.60;;;22.70;48.60;;;;;;5084322;28;20482;-61
2022/07/18 06:15:24;;;;;;;3.77;2.27;;;22.70;48.40;;;;;;5085813;28;20486;-61
2022/07/18 06:17:53;;;;;;;3.30;1.70;;;22.80;48.10;;;;;;5093101;28;20545;-61
2022/07/18 06:20:20;;;;;;;2.80;1.80;;;23.10;47.70;;;;;;5090482;28;20446;-61
2022/07/18 06:22:47;;;;;;;3.93;2.30;;;23.30;47.00;;;;;;5074635;28;20444;-61
2022/07/18 06:25:15;;;;;;;3.00;1.90;;;23.40;46.50;;;;;;5075163;28;20453;-60
2022/07/18 06:27:44;;;;;;;2.13;1.67;;;23.40;46.20;;;;;;5074318;28;20465;-62
2022/07/18 06:30:12;;;;;;;3.07;1.73;;;23.40;46.20;;;;;;5074990;28;20567;-61
2022/07/18 06:32:39;;;;;;;3.90;2.10;;;23.30;46.20;;;;;;5072867;28;20453;-59
2022/07/18 06:35:08;;;;;;;4.60;1.87;;;23.30;46.20;;;;;;5074650;28;20886;-60
2022/07/18 06:37:35;;;;;;;3.67;1.83;;;23.40;46.10;;;;;;5074637;28;20465;-61
2022/07/18 06:40:02;;;;;;;3.23;1.67;;;23.40;45.90;;;;;;5076236;28;20787;-61
2022/07/18 06:42:29;;;;;;;3.23;1.90;;;23.40;45.90;;;;;;5080181;28;20937;-61
2022/07/18 06:44:58;;;;;;;6.40;2.10;;;23.40;45.80;;;;;;5078748;28;20476;-60
2022/07/18 06:47:25;;;;;;;4.47;1.63;;;23.50;45.60;;;;;;5081903;28;20506;-61
2022/07/18 06:49:53;;;;;;;2.93;1.90;;;23.40;45.50;;;;;;5075326;28;20573;-60
2022/07/18 06:52:20;;;;;;;4.57;1.97;;;23.40;45.60;;;;;;5073909;28;20512;-60
2022/07/18 06:54:47;;;;;;;4.00;1.70;;;23.40;46.10;;;;;;5074405;28;20574;-61
2022/07/18 06:57:15;;;;;;;2.53;2.00;;;23.60;45.40;;;;;;5073846;28;20470;-59
2022/07/18 06:59:42;;;;;;;4.10;2.00;;;23.60;45.30;;;;;;5074375;28;20437;-60
2022/07/18 07:02:11;;;;;;;3.00;1.85;;;23.70;45.20;;;;;;5078265;28;20445;-61
2022/07/18 07:04:38;;;;;;;3.53;2.00;;;23.80;44.80;;;;;;5082991;28;20212;-61
2022/07/18 07:07:05;;;;;;;3.20;2.00;;;23.80;44.40;;;;;;5073806;28;20498;-60
2022/07/18 07:09:32;;;;;;;3.27;1.83;;;23.90;44.20;;;;;;5073449;28;20580;-62
2022/07/18 07:12:00;;;;;;;3.23;1.50;;;23.90;44.00;;;;;;5084668;28;20586;-60
2022/07/18 07:14:27;;;;;;;3.83;2.00;;;23.90;43.80;;;;;;5075534;28;20452;-61
2022/07/18 07:16:54;;;;;;;3.10;2.30;;;24.00;43.60;;;;;;5074032;28;20532;-61
2022/07/18 07:19:23;;;;;;;7.03;2.17;;;24.00;43.40;;;;;;5074808;28;20448;-62
2022/07/18 07:21:50;;;;;;;3.33;1.53;;;24.10;43.20;;;;;;5073944;28;20500;-62
2022/07/18 07:24:18;;;;;;;5.30;1.70;;;24.30;43.10;;;;;;5073993;28;20455;-61
2022/07/18 07:26:45;;;;;;;4.23;1.73;;;24.40;42.70;;;;;;5073729;28;20464;-61
2022/07/18 07:29:12;;;;;;;2.47;1.60;;;24.50;42.40;;;;;;5073470;28;20562;-61
2022/07/18 07:31:39;;;;;;;2.30;1.87;;;24.70;42.20;;;;;;5073061;28;20444;-61
2022/07/18 07:34:07;;;;;;;5.13;2.27;;;24.80;41.90;;;;;;5073309;28;20474;-62
2022/07/18 07:36:35;;;;;;;3.23;2.00;;;24.90;41.80;;;;;;5074021;28;20472;-62
2022/07/18 07:39:03;;;;;;;3.80;2.00;;;24.80;41.80;;;;;;5073481;28;20489;-61
2022/07/18 07:41:31;;;;;;;3.63;1.90;;;24.90;41.80;;;;;;5073789;28;20457;-62
2022/07/18 07:43:58;;;;;;;2.97;1.90;;;24.90;41.70;;;;;;5073658;28;20507;-60
2022/07/18 07:46:25;;;;;;;2.90;2.00;;;24.90;41.50;;;;;;5074885;28;20490;-61
2022/07/18 07:48:52;;;;;;;3.47;1.67;;;24.90;41.50;;;;;;5075223;28;20540;-63
2022/07/18 07:51:20;;;;;;;1.97;1.23;;;24.90;41.50;;;;;;5078512;28;20477;-62
2022/07/18 07:53:48;;;;;;;4.90;2.20;;;24.70;41.70;;;;;;5081337;28;20449;-59
2022/07/18 07:56:18;;;;;;;2.63;1.90;;;24.70;41.80;;;;;;5080090;28;21042;-61
2022/07/18 07:58:46;;;;;;;3.73;1.73;;;24.80;41.80;;;;;;5077042;28;20459;-61
2022/07/18 08:01:14;;;;;;;3.93;2.20;;;24.90;41.50;;;;;;5073267;28;20445;-60
2022/07/18 08:03:41;;;;;;;2.53;1.50;;;25.00;41.20;;;;;;5073727;28;20649;-61
2022/07/18 08:06:09;;;;;;;2.73;2.07;;;25.20;41.20;;;;;;5072685;28;20470;-61
2022/07/18 08:08:36;;;;;;;3.30;1.63;;;25.30;40.80;;;;;;5085449;28;20462;-63
2022/07/18 08:11:05;;;;;;;4.50;2.10;;;25.40;40.50;;;;;;5074230;28;20561;-62
2022/07/18 08:13:32;;;;;;;3.53;1.93;;;25.50;40.20;;;;;;5073342;28;20444;-62
2022/07/18 08:15:59;;;;;;;5.50;1.73;;;25.70;40.00;;;;;;5073128;28;21049;-61
2022/07/18 08:18:27;;;;;;;3.47;1.80;;;25.80;39.80;;;;;;5074890;28;20475;-61
2022/07/18 08:20:54;;;;;;;3.30;1.87;;;25.90;39.70;;;;;;5074198;28;20531;-61
2022/07/18 08:23:22;;;;;;;4.97;1.57;;;25.90;39.60;;;;;;5075041;28;20475;-61
2022/07/18 08:25:49;;;;;;;5.20;1.87;;;25.90;39.60;;;;;;5076364;28;20506;-61
2022/07/18 08:28:18;;;;;;;2.00;1.70;;;25.90;39.70;;;;;;5077416;28;20474;-62
2022/07/18 08:30:45;;;;;;;3.57;1.70;;;25.90;39.70;;;;;;5080253;28;21037;-60
2022/07/18 08:33:12;;;;;;;4.43;1.50;;;25.90;39.80;;;;;;5074723;28;20522;-61
2022/07/18 08:35:40;;;;;;;4.20;1.43;;;25.90;39.80;;;;;;5073266;28;20475;-61
2022/07/18 08:38:07;;;;;;;4.00;1.80;;;25.70;40.00;;;;;;5073178;28;20544;-61
2022/07/18 08:40:35;;;;;;;2.30;1.63;;;25.70;40.00;;;;;;5072939;28;20485;-62
2022/07/18 08:43:02;;;;;;;3.57;1.93;;;25.80;40.00;;;;;;5072494;28;20447;-61
2022/07/18 08:45:31;;;;;;;4.47;2.20;;;25.90;39.80;;;;;;5072595;28;20485;-61
2022/07/18 08:47:58;;;;;;;2.97;1.67;;;26.00;39.60;;;;;;5072288;28;20477;-61
2022/07/18 08:50:26;;;;;;;5.03;1.87;;;26.10;39.40;;;;;;5072576;28;20476;-61
2022/07/18 08:52:54;;;;;;;4.07;1.50;;;26.20;39.30;;;;;;5071742;28;20948;-61
2022/07/18 08:55:22;;;;;;;6.50;1.80;;;26.30;39.10;;;;;;5073422;28;20552;-62
2022/07/18 08:57:49;;;;;;;1.93;1.43;;;26.40;38.80;;;;;;5076436;28;20496;-61
2022/07/18 09:00:17;;;;;;;5.83;1.90;;;26.50;38.70;;;;;;5076324;28;20473;-61
2022/07/18 09:02:46;;;;;;;2.17;1.53;;;26.50;38.60;;;;;;5076027;28;20530;-62
2022/07/18 09:05:20;;;;;;;3.50;1.53;;;26.50;38.30;;;;;;5075714;28;20481;-61
2022/07/18 09:07:48;;;;;;;1.83;1.70;;;26.60;38.10;;;;;;5075655;28;20463;-61
2022/07/18 09:10:16;;;;;;;2.30;2.00;;;26.70;37.90;;;;;;5075928;28;20572;-61
2022/07/18 09:12:57;;;;;;;3.80;2.00;;;26.90;37.70;;;;;;5076075;28;20493;-62
2022/07/18 09:15:24;;;;;;;5.83;1.90;;;27.10;37.40;;;;;;5075903;28;20518;-61
2022/07/18 09:17:57;;;;;;;6.23;2.30;;;27.20;37.00;;;;;;5075634;28;20579;-62
2022/07/18 09:20:25;;;;;;;3.03;1.60;;;27.10;36.40;;;;;;5075653;28;20620;-61
2022/07/18 09:22:52;;;;;;;4.73;2.20;;;27.10;36.50;;;;;;5075206;28;20474;-60
2022/07/18 09:25:24;;;;;;;5.40;1.60;;;27.10;36.00;;;;;;5075808;28;20989;-61
2022/07/18 09:27:53;;;;;;;2.37;1.60;;;27.10;35.60;;;;;;5075904;28;20468;-62
2022/07/18 09:30:26;;;;;;;2.27;1.43;;;27.10;34.90;;;;;;5075442;28;20480;-61
2022/07/18 09:33:05;;;;;;;3.57;1.70;;;27.10;34.80;;;;;;5075223;28;20969;-62
2022/07/18 09:35:35;;;;;;;5.07;2.07;;;27.20;34.60;;;;;;5075360;28;20506;-61
2022/07/18 09:38:05;;;;;;;1.93;1.73;;;27.40;34.30;;;;;;5075439;28;20454;-61
2022/07/18 09:40:35;;;;;;;2.43;1.80;;;27.60;34.00;;;;;;5075060;28;20452;-61
2022/07/18 09:43:04;;;;;;;4.33;1.67;;;27.90;33.40;;;;;;5074858;28;20471;-62
2022/07/18 09:45:34;;;;;;;3.20;1.90;;;28.10;33.00;;;;;;5075378;28;20445;-63
2022/07/18 09:48:05;;;;;;;3.63;2.30;;;28.40;32.80;;;;;;5075486;28;20517;-62
2022/07/18 09:50:35;;;;;;;4.60;2.10;;;28.50;32.70;;;;;;5075551;28;20520;-62
2022/07/18 09:53:14;;;;;;;4.23;1.80;;;28.60;32.60;;;;;;5075568;28;20460;-61
2022/07/18 09:55:49;;;;;;;2.70;2.00;;;28.70;32.20;;;;;;5075799;28;20487;-61
2022/07/18 09:58:20;;;;;;;3.07;2.10;;;29.00;32.00;;;;;;5075225;28;20932;-62
2022/07/18 10:00:48;;;;;;;3.50;1.83;;;29.10;31.60;;;;;;5075608;28;20495;-61
2022/07/18 10:03:18;;;;;;;3.70;2.70;;;29.10;31.40;;;;;;5074935;28;20537;-61
2022/07/18 10:05:47;;;;;;;3.93;2.20;;;29.30;31.40;;;;;;5075028;28;20501;-62
2022/07/18 10:08:17;;;;;;;4.30;2.43;;;29.50;31.10;;;;;;5075389;28;20463;-62
2022/07/18 10:10:46;;;;;;;4.80;2.40;;;29.40;30.90;;;;;;5075530;28;20517;-61
2022/07/18 10:13:15;;;;;;;3.83;2.20;;;29.50;30.90;;;;;;5075432;28;20437;-62
2022/07/18 10:15:44;;;;;;;3.47;2.23;;;29.50;30.80;;;;;;5075375;28;20558;-60
2022/07/18 10:18:13;;;;;;;3.33;2.20;;;29.50;30.70;;;;;;5075389;28;20439;-62
2022/07/18 10:20:45;;;;;;;3.13;2.67;;;29.60;30.60;;;;;;5075958;28;20512;-61
2022/07/18 10:23:18;;;;;;;3.53;2.77;;;29.70;30.30;;;;;;5075306;28;20495;-61
2022/07/18 10:25:46;;;;;;;3.37;2.40;;;29.70;30.00;;;;;;5075759;28;20430;-61
2022/07/18 10:28:14;;;;;;;4.37;2.87;;;29.90;29.90;;;;;;5074816;28;20448;-62
2022/07/18 10:30:46;;;;;;;4.13;3.13;;;30.10;29.60;;;;;;5074247;28;20515;-59
2022/07/18 10:33:40;;;;;;;4.80;3.10;;;30.30;29.40;;;;;;5088992;28;20449;-62
2022/07/18 10:36:10;;;;;;;3.73;2.90;;;30.60;29.30;;;;;;5078140;28;20460;-62
2022/07/18 10:38:39;;;;;;;3.13;2.60;;;30.80;29.00;;;;;;5075160;28;20427;-62
2022/07/18 10:41:13;;;;;;;5.10;3.07;;;30.70;28.70;;;;;;5075007;28;20855;-62
2022/07/18 10:43:42;;;;;;;4.13;2.80;;;30.70;28.50;;;;;;5074390;28;20472;-63
2022/07/18 10:46:11;;;;;;;6.37;3.17;;;30.70;28.60;;;;;;5074273;28;20496;-62
2022/07/18 10:48:58;;;;;;;2.93;2.60;;;30.70;28.70;;;;;;5074507;28;20445;-62
2022/07/18 10:51:34;;;;;;;4.17;2.50;;;31.00;28.70;;;;;;5074575;28;20481;-61
2022/07/18 10:54:19;;;;;;;4.20;2.70;;;31.10;28.70;;;;;;5074799;28;20759;-61
2022/07/18 10:57:10;;;;;;;5.73;2.53;;;31.30;28.70;;;;;;5074082;28;20543;-62
2022/07/18 11:00:01;;;;;;;2.77;2.37;;;31.40;28.70;;;;;;5073632;28;20429;-63
2022/07/18 11:02:38;;;;;;;2.90;2.10;;;31.60;28.60;;;;;;5074001;28;20428;-62
2022/07/18 11:05:35;;;;;;;3.60;2.60;;;31.70;28.40;;;;;;5075551;28;20458;-61
2022/07/18 11:08:24;;;;;;;4.30;2.40;;;31.80;28.20;;;;;;5073914;28;20963;-62
2022/07/18 11:11:21;;;;;;;4.50;2.33;;;31.80;28.20;;;;;;5074411;28;20561;-62
2022/07/18 11:13:51;;;;;;;3.50;2.50;;;31.50;28.20;;;;;;5074671;28;20488;-63
2022/07/18 11:16:21;;;;;;;3.03;2.57;;;31.30;28.50;;;;;;5073898;28;20549;-63
2022/07/18 11:19:20;;;;;;;3.40;2.50;;;31.20;28.60;;;;;;5073453;28;20438;-62
2022/07/18 11:21:47;;;;;;;4.53;2.80;;;31.30;28.50;;;;;;5074213;28;20474;-63
2022/07/18 11:24:16;;;;;;;3.73;2.77;;;31.50;28.30;;;;;;5073597;28;20538;-61
2022/07/18 11:26:48;;;;;;;4.20;2.73;;;31.60;27.80;;;;;;5073276;28;20516;-63
2022/07/18 11:29:17;;;;;;;4.43;2.83;;;31.70;27.70;;;;;;5073583;28;20445;-61
2022/07/18 11:31:46;;;;;;;2.53;2.30;;;31.80;27.60;;;;;;5074518;28;20503;-62
2022/07/18 11:34:14;;;;;;;4.80;3.10;;;32.00;27.80;;;;;;5073736;28;20438;-62
2022/07/18 11:36:45;;;;;;;2.47;2.27;;;32.20;27.20;;;;;;5073826;28;20527;-62
2022/07/18 11:39:13;;;;;;;4.70;2.60;;;32.50;26.90;;;;;;5073753;28;20435;-62
2022/07/18 11:41:43;;;;;;;3.87;2.33;;;32.50;26.60;;;;;;5074399;28;20453;-62
2022/07/18 11:44:26;;;;;;;4.73;2.10;;;32.40;26.50;;;;;;5074546;28;20474;-63
2022/07/18 11:47:03;;;;;;;3.23;2.50;;;32.10;26.50;;;;;;5073701;28;20469;-63
2022/07/18 11:49:30;;;;;;;5.10;2.43;;;32.00;26.80;;;;;;5073616;28;20430;-63
2022/07/18 11:51:57;;;;;;;5.20;2.37;;;32.20;26.80;;;;;;5074633;28;20555;-64
2022/07/18 11:54:28;;;;;;;3.63;2.70;;;32.50;26.60;;;;;;5083521;28;20513;-63
2022/07/18 11:56:59;;;;;;;3.47;2.47;;;32.70;26.30;;;;;;5083408;28;20455;-62
2022/07/18 11:59:37;;;;;;;3.83;2.70;;;32.70;26.10;;;;;;5084977;28;20434;-63
2022/07/18 12:02:05;;;;;;;4.37;2.70;;;32.90;26.10;;;;;;5082760;28;20847;-63
2022/07/18 12:04:32;;;;;;;2.70;2.20;;;33.40;26.00;;;;;;5081366;28;20446;-64
2022/07/18 12:07:17;;;;;;;4.80;2.33;;;33.90;25.60;;;;;;5079975;28;20509;-63
2022/07/18 12:09:45;;;;;;;4.47;2.50;;;34.30;25.10;;;;;;5073786;28;20454;-62
2022/07/18 12:12:15;;;;;;;3.63;2.50;;;34.30;24.40;;;;;;5074211;28;21066;-63
2022/07/18 12:14:42;;;;;;;2.90;2.50;;;34.10;24.20;;;;;;5073886;28;20447;-63
2022/07/18 12:17:10;;;;;;;3.53;3.20;;;33.80;24.20;;;;;;5074455;28;20471;-63
2022/07/18 12:19:39;;;;;;;3.17;2.50;;;33.60;24.50;;;;;;5074329;28;20481;-62
2022/07/18 12:22:08;;;;;;;3.20;2.30;;;33.30;24.70;;;;;;5075681;28;20795;-62
2022/07/18 12:24:38;;;;;;;3.10;2.17;;;33.00;25.00;;;;;;5074866;28;20450;-63
2022/07/18 12:27:19;;;;;;;2.90;2.60;;;33.00;24.90;;;;;;5074374;28;20467;-63
2022/07/18 12:30:07;;;;;;;2.80;1.90;;;33.50;24.40;;;;;;5074728;28;20856;-63
2022/07/18 12:32:43;;;;;;;3.90;3.10;;;34.00;23.80;;;;;;5078955;28;20485;-63
2022/07/18 12:35:12;;;;;;;3.13;2.40;;;34.40;23.40;;;;;;5082542;28;20903;-62
2022/07/18 12:37:40;;;;;;;8.03;3.07;;;34.60;23.10;;;;;;5078337;28;20475;-63
2022/07/18 12:40:10;;;;;;;2.60;2.40;;;34.60;23.10;;;;;;5079020;28;20474;-62
2022/07/18 12:42:41;;;;;;;3.10;2.07;;;34.70;23.10;;;;;;5077846;28;20446;-61
2022/07/18 12:45:11;;;;;;;2.60;2.17;;;34.70;23.00;;;;;;5077523;28;20514;-62
2022/07/18 12:47:38;;;;;;;2.80;2.57;;;34.60;22.90;;;;;;5076917;28;20550;-62
2022/07/18 12:50:07;;;;;;;3.83;2.80;;;34.60;22.90;;;;;;5077255;28;20496;-63
2022/07/18 12:52:35;;;;;;;3.30;2.43;;;34.50;23.00;;;;;;5077837;28;20483;-65
2022/07/18 12:55:02;;;;;;;3.80;2.60;;;34.40;23.10;;;;;;5076477;28;20500;-63
2022/07/18 12:57:29;;;;;;;4.77;2.20;;;34.60;23.10;;;;;;5076861;28;20467;-63
2022/07/18 12:59:58;;;;;;;2.93;2.57;;;34.60;22.80;;;;;;5083978;28;20938;-63
2022/07/18 13:02:25;;;;;;;2.97;2.17;;;34.60;22.80;;;;;;5077262;28;20447;-63